Terminal Aerodrome Forecast
Issued by NWS Omaha/Valley, NE

Home | Current Version | Previous Version | Text Only | Print | Product List | Glossary Off
Versions: 1 2 3 4 5 6 7 8 9 10 11 12 13 14 15 16 17 18 19 20 21 22 23 24 25 26 27 28 29 30 31 32 33 34 35

000
FTUS43 KOAX 051349 AAB
TAFOFK
TAF AMD
KOFK 051349Z 0514/0612 16012KT P6SM BKN050
      TEMPO 0514/0515 VRB15G25KT 3SM TSRA BKN015CB
     FM051800 17017G24KT P6SM SCT250 PROB30 0605/0610 VRB20G35KT 4SM
      +TSRA BKN040CB=

USA.gov is the U.S. government's official web portal to all federal, state and local government web resources and services.